Princeton, Oregon
Current Conditions -  °F | °C
As of 7:53 PM on Saturday 20 Dec 2014 (Local Time) from KBNO Reporting Station
Unknown Precip Unknown Precip  
Wind Chill:   Ceiling: 6000
Heat Index:   Visibility: 10mi
Dew Point:   Wind: 0mph
Humidity: 92%   Direction: NA
Pressure: 29.89"   Gusts: NA
Location:  43.25°N, 118.58°W
Report Text: KBNO 210353Z AUTO 00000KT 10SM UP OVC060 01/00 A2989 RMK AO2 RAE09B12E47UPB09 SLP134 P0001 T00110000
Loading
Personal Weather Stations






























Interactive Weather Map New forecast layout! Learn more

10-Day Weather Forecast

Advertisements
Track Severe Weather on mobile